Time;durP1;ratioP1;P1;durP2;ratioP2;P2;SDS_P1;SDS_P2;PMS_P1;PMS_P2;Temp;Humidity;BMP_temperature;BMP_pressure;BME280_temperature;BME280_humidity;BME280_pressure;Samples;Min_cycle;Max_cycle;Signal;HPM_P1;HPM_P2
2021/11/07 05:01:05;;;;;;;4.90;4.70;;;9.90;99.90;;;;;;5629723;23;20276;-69
2021/11/07 05:03:32;;;;;;;5.15;4.85;;;9.90;99.90;;;;;;4936457;28;20212;-70
2021/11/07 05:06:00;;;;;;;6.88;6.28;;;9.90;99.90;;;;;;4948045;28;20206;-70
2021/11/07 05:08:27;;;;;;;4.70;4.40;;;9.90;99.90;;;;;;4948346;28;20198;-70
2021/11/07 05:10:53;;;;;;;5.90;5.53;;;10.00;99.90;;;;;;4934051;29;20660;-70
2021/11/07 05:13:20;;;;;;;4.93;4.63;;;10.00;99.90;;;;;;4933606;29;20552;-70
2021/11/07 05:15:47;;;;;;;7.97;4.95;;;10.00;99.90;;;;;;4934294;29;20230;-70
2021/11/07 05:18:18;;;;;;;6.18;4.90;;;10.00;99.90;;;;;;4933749;29;20237;-70
2021/11/07 05:20:45;;;;;;;5.63;4.80;;;10.00;99.90;;;;;;4933932;29;20244;-70
2021/11/07 05:23:12;;;;;;;4.68;4.45;;;10.00;99.90;;;;;;4933743;29;20714;-70
2021/11/07 05:25:39;;;;;;;5.70;5.30;;;10.00;99.90;;;;;;4933809;29;20210;-70
2021/11/07 05:28:06;;;;;;;4.63;4.43;;;10.00;99.90;;;;;;4933292;29;20206;-70
2021/11/07 05:30:33;;;;;;;6.85;5.78;;;10.00;99.90;;;;;;4933935;29;20722;-71
2021/11/07 05:32:59;;;;;;;6.68;6.07;;;10.00;99.90;;;;;;4933517;29;20272;-71
2021/11/07 05:35:27;;;;;;;8.27;6.22;;;10.00;99.90;;;;;;4934163;29;20597;-71
2021/11/07 05:37:54;;;;;;;7.03;6.35;;;10.00;99.90;;;;;;4934569;29;20640;-71
2021/11/07 05:40:21;;;;;;;5.97;5.47;;;10.00;99.90;;;;;;4934177;29;20218;-72
2021/11/07 05:42:49;;;;;;;6.90;6.20;;;10.00;99.90;;;;;;4933532;29;20202;-72
2021/11/07 05:45:16;;;;;;;6.78;6.22;;;10.00;99.90;;;;;;4933965;29;20202;-72
2021/11/07 05:47:44;;;;;;;7.10;6.40;;;9.90;99.90;;;;;;4933964;29;20210;-72
2021/11/07 05:50:12;;;;;;;5.68;5.18;;;9.90;99.90;;;;;;4933960;29;20218;-71
2021/11/07 05:52:41;;;;;;;5.20;4.40;;;9.90;99.90;;;;;;4933496;29;20214;-71
2021/11/07 05:55:08;;;;;;;3.20;3.05;;;9.90;99.90;;;;;;4930686;29;20249;-73
2021/11/07 05:57:35;;;;;;;3.47;3.28;;;9.80;99.90;;;;;;4934076;29;20544;-71
2021/11/07 06:00:02;;;;;;;3.65;2.60;;;9.80;99.90;;;;;;4932880;29;20205;-71
2021/11/07 06:02:29;;;;;;;2.65;2.53;;;9.70;99.90;;;;;;4933279;29;20248;-72
2021/11/07 06:04:56;;;;;;;2.33;2.13;;;9.70;99.90;;;;;;4933505;29;20216;-72
2021/11/07 06:07:22;;;;;;;2.72;2.53;;;9.60;99.90;;;;;;4933199;29;20664;-71
2021/11/07 06:09:50;;;;;;;2.22;1.48;;;9.50;99.90;;;;;;4932272;29;20210;-71
2021/11/07 06:12:17;;;;;;;3.88;1.95;;;9.50;99.90;;;;;;4914094;29;20241;-71
2021/11/07 06:14:44;;;;;;;2.15;1.60;;;9.50;99.90;;;;;;4920906;29;20210;-71
2021/11/07 06:17:11;;;;;;;16.90;2.10;;;9.50;99.90;;;;;;4932633;29;20229;-71
2021/11/07 06:19:38;;;;;;;5.00;2.28;;;9.40;99.90;;;;;;4932716;29;20201;-71
2021/11/07 06:22:05;;;;;;;7.93;2.47;;;9.40;99.90;;;;;;4932904;29;20257;-71
2021/11/07 06:24:32;;;;;;;10.55;2.40;;;9.50;99.90;;;;;;4933101;29;20216;-72
2021/11/07 06:27:02;;;;;;;5.25;2.60;;;9.40;99.90;;;;;;4932147;29;20215;-72
2021/11/07 06:29:29;;;;;;;5.55;2.40;;;9.40;99.90;;;;;;4933372;29;20206;-72
2021/11/07 06:31:57;;;;;;;4.80;2.05;;;9.40;99.90;;;;;;4933094;29;20257;-72
2021/11/07 06:34:25;;;;;;;3.47;2.08;;;9.40;99.90;;;;;;4933749;29;20239;-72
2021/11/07 06:36:53;;;;;;;6.63;2.78;;;9.40;99.90;;;;;;4932711;29;20217;-72
2021/11/07 06:39:20;;;;;;;6.05;2.30;;;9.30;99.90;;;;;;4932597;29;20206;-72
2021/11/07 06:41:47;;;;;;;4.88;2.70;;;9.30;99.90;;;;;;4932973;29;20701;-72
2021/11/07 06:44:16;;;;;;;8.68;3.40;;;9.30;99.90;;;;;;4930084;29;20568;-72
2021/11/07 06:46:43;;;;;;;5.78;2.72;;;9.30;99.90;;;;;;4936295;29;20676;-72
2021/11/07 06:49:12;;;;;;;7.35;2.38;;;9.30;99.90;;;;;;4932822;29;20202;-72
2021/11/07 06:51:39;;;;;;;5.40;3.00;;;9.30;99.90;;;;;;4932663;29;20757;-72
2021/11/07 06:54:06;;;;;;;7.65;2.95;;;9.30;99.90;;;;;;4932144;29;20210;-72
2021/11/07 06:56:34;;;;;;;2.95;2.65;;;9.30;99.90;;;;;;4933004;29;20976;-72
2021/11/07 06:59:01;;;;;;;7.65;2.53;;;9.40;99.90;;;;;;4931888;29;20600;-72
2021/11/07 07:01:29;;;;;;;4.32;2.80;;;9.40;99.90;;;;;;4932596;29;20248;-72
2021/11/07 07:03:56;;;;;;;7.90;3.33;;;9.40;99.90;;;;;;4932708;29;20209;-73
2021/11/07 07:06:22;;;;;;;4.40;3.78;;;9.40;99.90;;;;;;4932807;29;20217;-73
2021/11/07 07:08:53;;;;;;;6.88;3.10;;;9.40;99.90;;;;;;4933177;29;20549;-72
2021/11/07 07:11:26;;;;;;;11.38;4.00;;;9.40;99.90;;;;;;4932472;29;20234;-72
2021/11/07 07:13:59;;;;;;;4.57;2.70;;;9.50;99.90;;;;;;4932886;29;20215;-72
2021/11/07 07:16:42;;;;;;;3.17;2.88;;;9.50;99.90;;;;;;4932665;29;20241;-72
2021/11/07 07:19:24;;;;;;;5.22;2.80;;;9.60;99.90;;;;;;4932195;29;20232;-72
2021/11/07 07:22:00;;;;;;;7.68;2.70;;;9.60;99.90;;;;;;4926546;29;20693;-72
2021/11/07 07:30:05;;;;;;;11.05;3.33;;;9.60;99.90;;;;;;4936391;29;20213;-72
2021/11/07 07:32:57;;;;;;;4.40;2.90;;;9.70;99.90;;;;;;4936157;29;20284;-72
2021/11/07 07:35:27;;;;;;;5.28;3.08;;;9.80;99.90;;;;;;4931090;29;20217;-72
2021/11/07 07:37:55;;;;;;;3.72;2.80;;;9.80;99.90;;;;;;4946476;29;20242;-72
2021/11/07 07:40:22;;;;;;;7.85;3.38;;;9.80;99.90;;;;;;4935575;29;20206;-73
2021/11/07 07:42:49;;;;;;;8.27;3.13;;;9.80;99.90;;;;;;4935806;29;20210;-73
2021/11/07 07:45:16;;;;;;;9.02;3.20;;;9.70;99.90;;;;;;4935925;29;20202;-73
2021/11/07 07:47:44;;;;;;;5.53;3.05;;;9.70;99.90;;;;;;4935733;29;20289;-73
2021/11/07 07:50:12;;;;;;;8.25;3.17;;;9.70;99.90;;;;;;4935588;29;20289;-73
2021/11/07 07:52:40;;;;;;;6.30;3.05;;;9.70;99.90;;;;;;4935777;29;20217;-73
2021/11/07 07:55:08;;;;;;;4.53;2.88;;;9.60;99.90;;;;;;4934900;29;20698;-73
2021/11/07 07:57:35;;;;;;;11.75;3.90;;;9.60;99.90;;;;;;4934675;29;20578;-73
2021/11/07 08:00:02;;;;;;;10.50;4.50;;;9.60;99.90;;;;;;4935757;29;20216;-73
2021/11/07 08:02:29;;;;;;;7.53;3.58;;;9.60;99.90;;;;;;4935359;29;20317;-73
2021/11/07 08:04:56;;;;;;;7.43;3.70;;;9.60;99.90;;;;;;4935357;29;20220;-73
2021/11/07 08:07:24;;;;;;;9.85;3.80;;;9.60;99.90;;;;;;4935213;29;20202;-73
2021/11/07 08:09:52;;;;;;;10.48;3.22;;;9.60;99.90;;;;;;4935068;29;20221;-73
2021/11/07 08:12:19;;;;;;;5.80;2.92;;;9.70;99.90;;;;;;4934799;29;20222;-73
2021/11/07 08:14:46;;;;;;;6.60;3.05;;;9.80;99.90;;;;;;4935730;29;20210;-73
2021/11/07 08:17:13;;;;;;;8.23;3.58;;;9.80;99.90;;;;;;4934493;29;20206;-73
2021/11/07 08:19:39;;;;;;;7.03;2.95;;;9.80;99.90;;;;;;4934836;29;20226;-72
2021/11/07 08:22:07;;;;;;;5.82;2.65;;;9.80;99.90;;;;;;4935142;29;20242;-72
2021/11/07 08:24:35;;;;;;;4.20;2.70;;;9.80;99.90;;;;;;4933382;29;20218;-72
2021/11/07 08:27:03;;;;;;;5.22;2.97;;;9.80;99.90;;;;;;4934555;29;20206;-72
2021/11/07 08:29:30;;;;;;;11.00;2.70;;;9.80;99.90;;;;;;4934596;29;20659;-71
2021/11/07 08:31:58;;;;;;;8.45;2.75;;;9.80;99.90;;;;;;4935196;29;20237;-72
2021/11/07 08:34:27;;;;;;;8.00;2.75;;;9.90;99.90;;;;;;4934726;29;20217;-72
2021/11/07 08:36:58;;;;;;;8.05;3.35;;;9.90;99.90;;;;;;4934609;29;20233;-72
2021/11/07 08:39:28;;;;;;;11.88;3.05;;;9.90;99.90;;;;;;4933312;29;20237;-72
2021/11/07 08:41:59;;;;;;;5.70;2.53;;;10.00;99.90;;;;;;4935167;29;20324;-72
2021/11/07 09:01:00;;;;;;;6.03;2.50;;;10.20;99.90;;;;;;4934354;29;20275;-74
2021/11/07 09:03:42;;;;;;;7.20;2.20;;;10.20;99.90;;;;;;4934661;29;20229;-74
2021/11/07 09:06:25;;;;;;;10.40;2.63;;;10.20;99.90;;;;;;4930109;29;20225;-73
2021/11/07 09:08:52;;;;;;;6.43;2.20;;;10.10;99.90;;;;;;4933997;29;20538;-73
2021/11/07 09:11:20;;;;;;;6.60;2.25;;;10.10;99.90;;;;;;4941815;29;20247;-73
2021/11/07 09:13:48;;;;;;;8.82;3.55;;;10.10;99.90;;;;;;4928146;29;20535;-73
2021/11/07 09:16:16;;;;;;;8.13;3.15;;;10.10;99.90;;;;;;4941091;29;20289;-73
2021/11/07 09:18:44;;;;;;;4.65;2.90;;;10.30;99.90;;;;;;4937132;29;20630;-73
2021/11/07 09:21:14;;;;;;;5.80;2.50;;;10.30;99.90;;;;;;4933556;29;20252;-73
2021/11/07 09:23:46;;;;;;;8.32;2.97;;;10.40;99.90;;;;;;4933335;29;20238;-73
2021/11/07 09:26:24;;;;;;;8.20;2.80;;;10.40;99.90;;;;;;4931152;29;20305;-73
2021/11/07 09:28:55;;;;;;;4.82;2.60;;;10.40;99.90;;;;;;4932358;29;20277;-73
2021/11/07 09:31:34;;;;;;;5.32;3.10;;;10.40;99.90;;;;;;4942908;29;20316;-73
2021/11/07 09:34:18;;;;;;;3.72;2.35;;;10.40;99.90;;;;;;4935840;29;20234;-73
2021/11/07 09:36:49;;;;;;;7.05;2.78;;;10.30;99.90;;;;;;4940717;29;20292;-73
2021/11/07 09:39:23;;;;;;;7.03;3.22;;;10.30;99.90;;;;;;4932456;29;20722;-73
2021/11/07 09:44:38;;;;;;;7.88;2.95;;;10.30;99.90;;;;;;4911424;29;20313;-73
2021/11/07 09:47:08;;;;;;;3.78;2.25;;;10.30;99.90;;;;;;4928762;29;20209;-72
2021/11/07 09:49:44;;;;;;;3.60;1.85;;;10.30;99.90;;;;;;4933373;29;20233;-73
2021/11/07 09:52:14;;;;;;;8.57;2.22;;;10.40;99.90;;;;;;4933470;29;20272;-73
2021/11/07 09:54:43;;;;;;;7.60;3.17;;;10.40;99.90;;;;;;4933318;29;20337;-73
2021/11/07 09:57:11;;;;;;;4.40;2.42;;;10.40;99.90;;;;;;4932405;29;20252;-73
2021/11/07 09:59:38;;;;;;;5.07;2.47;;;10.50;99.90;;;;;;4932831;29;20228;-73
2021/11/07 10:02:06;;;;;;;7.53;1.85;;;10.50;99.90;;;;;;4932929;29;20238;-73
2021/11/07 10:04:36;;;;;;;6.25;2.13;;;10.50;99.90;;;;;;4943565;29;20212;-74
2021/11/07 10:07:16;;;;;;;12.52;2.58;;;10.50;99.90;;;;;;4938557;29;20238;-73
2021/11/07 10:09:44;;;;;;;6.80;1.85;;;10.60;99.90;;;;;;4936105;29;20193;-72
2021/11/07 10:12:16;;;;;;;7.00;2.90;;;10.60;99.90;;;;;;4931897;29;20527;-72
2021/11/07 10:14:47;;;;;;;8.82;2.83;;;10.60;99.90;;;;;;4932523;29;20206;-73
2021/11/07 10:17:28;;;;;;;11.13;2.60;;;10.70;99.90;;;;;;4932909;29;20220;-72
2021/11/07 10:20:17;;;;;;;15.80;3.65;;;10.80;99.90;;;;;;4932693;29;20230;-73
2021/11/07 10:22:47;;;;;;;9.93;2.70;;;10.80;99.90;;;;;;4934773;29;20198;-73
2021/11/07 10:25:18;;;;;;;6.70;2.53;;;10.90;99.90;;;;;;4930583;29;20316;-73
2021/11/07 10:27:48;;;;;;;5.80;2.55;;;10.90;99.90;;;;;;4929716;29;20725;-72
2021/11/07 10:30:20;;;;;;;12.02;2.70;;;11.10;99.90;;;;;;4932377;29;20603;-73
2021/11/07 10:33:11;;;;;;;7.65;3.22;;;11.10;99.90;;;;;;4935050;29;20210;-72
2021/11/07 10:41:37;;;;;;;7.28;3.60;;;11.40;99.90;;;;;;4923489;29;20310;-72
2021/11/07 10:44:28;;;;;;;10.23;3.90;;;11.40;99.90;;;;;;4936760;29;20205;-72
2021/11/07 10:47:01;;;;;;;11.63;3.80;;;11.50;99.90;;;;;;4932584;29;20205;-72
2021/11/07 10:52:28;;;;;;;9.20;2.35;;;11.50;99.90;;;;;;4940094;29;20245;-73
2021/11/07 10:54:55;;;;;;;9.45;3.15;;;11.50;99.90;;;;;;4933535;29;20205;-72
2021/11/07 10:57:27;;;;;;;8.07;3.20;;;11.50;99.90;;;;;;4933666;29;20353;-71
2021/11/07 11:00:23;;;;;;;12.32;3.22;;;11.50;99.90;;;;;;4933460;29;20253;-71
2021/11/07 11:02:52;;;;;;;9.68;3.15;;;11.40;99.90;;;;;;4940884;29;20229;-71
2021/11/07 11:05:24;;;;;;;13.70;3.38;;;11.40;99.90;;;;;;4945545;29;20221;-72
2021/11/07 11:08:04;;;;;;;7.88;2.35;;;11.40;99.90;;;;;;4949917;29;20212;-71
2021/11/07 11:10:51;;;;;;;12.05;3.13;;;11.40;99.90;;;;;;4940561;29;20209;-71
2021/11/07 11:13:24;;;;;;;6.20;2.50;;;11.50;99.90;;;;;;4933273;29;20626;-72
2021/11/07 11:16:12;;;;;;;11.10;3.40;;;11.60;99.90;;;;;;4937055;29;20202;-72
2021/11/07 11:18:55;;;;;;;6.15;2.78;;;11.70;99.90;;;;;;4935657;29;20233;-73
2021/11/07 11:24:13;;;;;;;6.25;2.35;;;11.90;99.90;;;;;;4936028;29;20218;-72
2021/11/07 11:27:01;;;;;;;3.83;2.05;;;11.90;99.90;;;;;;4935850;29;20221;-72
2021/11/07 11:29:44;;;;;;;4.85;1.77;;;11.90;99.90;;;;;;4930172;29;20202;-72
2021/11/07 11:32:17;;;;;;;4.78;2.75;;;11.80;99.90;;;;;;4928327;29;20607;-72
2021/11/07 11:34:48;;;;;;;9.82;2.45;;;11.80;99.90;;;;;;4932363;29;20300;-71
2021/11/07 11:37:21;;;;;;;6.15;2.20;;;11.70;99.90;;;;;;4926822;29;20234;-72
2021/11/07 11:39:55;;;;;;;5.57;1.90;;;11.60;99.90;;;;;;4935131;29;20325;-73
2021/11/07 11:42:26;;;;;;;5.65;2.53;;;11.60;99.90;;;;;;4933465;29;20582;-71
2021/11/07 11:44:56;;;;;;;8.43;2.22;;;11.60;99.90;;;;;;4930798;29;20698;-72
2021/11/07 11:47:39;;;;;;;4.00;1.23;;;11.50;99.90;;;;;;4936420;29;20289;-72
2021/11/07 11:50:21;;;;;;;6.75;2.42;;;11.50;99.90;;;;;;4930460;29;20198;-70
2021/11/07 11:52:56;;;;;;;4.00;2.22;;;11.40;99.90;;;;;;4942412;29;20213;-71
2021/11/07 11:58:19;;;;;;;3.75;1.70;;;11.10;99.90;;;;;;4938384;29;20201;-70
2021/11/07 12:00:52;;;;;;;3.72;1.25;;;10.90;99.90;;;;;;4951386;29;20339;-71
2021/11/07 12:06:32;;;;;;;4.25;1.70;;;10.70;99.90;;;;;;4933688;29;20361;-71
2021/11/07 12:09:34;;;;;;;4.03;1.77;;;10.60;99.90;;;;;;4952276;29;20676;-71
2021/11/07 12:12:07;;;;;;;5.00;2.90;;;10.50;99.90;;;;;;4935475;29;20281;-70
2021/11/07 12:14:57;;;;;;;2.75;1.48;;;10.40;99.90;;;;;;4942062;29;20273;-70
2021/11/07 12:17:28;;;;;;;4.07;2.05;;;10.30;99.90;;;;;;4947888;29;20220;-71
2021/11/07 12:19:55;;;;;;;7.45;1.92;;;10.20;99.90;;;;;;4947783;29;20615;-71
2021/11/07 12:22:24;;;;;;;2.08;1.88;;;10.00;99.90;;;;;;4945223;29;20232;-71
2021/11/07 12:25:03;;;;;;;4.15;2.17;;;9.90;99.90;;;;;;4934444;29;20206;-71
2021/11/07 12:27:34;;;;;;;5.10;2.78;;;9.80;99.90;;;;;;4931843;29;20630;-72
2021/11/07 12:30:04;;;;;;;5.22;2.35;;;9.70;99.90;;;;;;4941924;29;20232;-71
2021/11/07 12:32:34;;;;;;;5.50;1.35;;;9.70;99.90;;;;;;4934780;29;20254;-71
2021/11/07 12:35:11;;;;;;;4.60;1.50;;;9.60;99.90;;;;;;4940858;29;20220;-72
2021/11/07 12:40:42;;;;;;;6.15;2.50;;;9.60;99.90;;;;;;4904393;29;20335;-71
2021/11/07 12:43:11;;;;;;;6.75;2.10;;;9.60;99.90;;;;;;4924141;29;20546;-71
2021/11/07 12:45:42;;;;;;;4.88;2.10;;;9.50;99.90;;;;;;4933995;29;20217;-72
2021/11/07 12:48:11;;;;;;;7.72;2.10;;;9.50;99.90;;;;;;4942522;29;20208;-71
2021/11/07 12:50:56;;;;;;;10.23;2.85;;;9.40;99.90;;;;;;4941382;29;20293;-71
2021/11/07 12:53:24;;;;;;;4.35;2.80;;;9.50;99.90;;;;;;4934987;29;20297;-71
2021/11/07 12:55:52;;;;;;;6.05;2.30;;;9.30;99.90;;;;;;4938885;29;20530;-71
2021/11/07 12:58:20;;;;;;;9.00;2.25;;;9.20;99.90;;;;;;4928189;29;20210;-71
2021/11/07 13:00:47;;;;;;;12.20;3.38;;;9.20;99.90;;;;;;4947924;29;20234;-72
2021/11/07 13:03:17;;;;;;;6.70;2.03;;;9.10;99.90;;;;;;4926984;29;20542;-72
2021/11/07 13:05:44;;;;;;;7.63;2.20;;;9.10;99.90;;;;;;4938417;29;20217;-71
2021/11/07 13:08:18;;;;;;;7.57;2.90;;;9.10;99.90;;;;;;4965003;23;20608;-70
2021/11/07 13:10:52;;;;;;;5.72;2.33;;;9.10;99.90;;;;;;4964395;28;20230;-71
2021/11/07 13:13:28;;;;;;;6.93;2.40;;;9.10;99.90;;;;;;4965577;28;20264;-71
2021/11/07 13:16:09;;;;;;;8.63;2.95;;;9.10;99.90;;;;;;4953487;28;20213;-71
2021/11/07 13:18:49;;;;;;;6.25;2.90;;;9.20;99.90;;;;;;4949583;28;20233;-71
2021/11/07 13:24:30;;;;;;;9.82;3.55;;;9.30;99.90;;;;;;4927587;29;20323;-72
2021/11/07 13:27:04;;;;;;;17.08;3.25;;;9.30;99.90;;;;;;4935019;29;20624;-72
2021/11/07 13:29:48;;;;;;;10.55;2.80;;;9.40;99.90;;;;;;4931875;29;20229;-72
2021/11/07 13:35:01;;;;;;;11.52;3.35;;;9.50;99.90;;;;;;4938330;29;20658;-72
2021/11/07 13:37:39;;;;;;;6.43;3.65;;;9.60;99.90;;;;;;4933824;28;20261;-72
2021/11/07 13:40:11;;;;;;;9.80;3.20;;;9.70;99.90;;;;;;4925977;29;20233;-72
2021/11/07 13:42:39;;;;;;;9.10;3.30;;;9.80;99.90;;;;;;4939306;29;20534;-71
2021/11/07 13:45:11;;;;;;;9.65;3.13;;;9.90;99.90;;;;;;4942235;29;20290;-71
2021/11/07 13:47:42;;;;;;;6.60;2.55;;;10.00;99.90;;;;;;4932468;29;20257;-71
2021/11/07 13:50:11;;;;;;;7.28;2.67;;;10.00;99.90;;;;;;4933396;29;20234;-71
2021/11/07 13:52:41;;;;;;;6.05;2.58;;;10.10;99.90;;;;;;4931944;29;20208;-71
2021/11/07 13:55:14;;;;;;;6.15;3.50;;;10.10;99.90;;;;;;4932467;29;20224;-71
2021/11/07 13:57:41;;;;;;;10.05;2.80;;;10.10;99.90;;;;;;4935228;29;20307;-72
2021/11/07 14:00:12;;;;;;;9.70;3.05;;;10.10;99.90;;;;;;4946494;29;20232;-71
2021/11/07 14:02:46;;;;;;;15.88;4.28;;;10.10;99.90;;;;;;4936096;29;20290;-72
2021/11/07 14:05:13;;;;;;;10.93;3.63;;;10.10;99.90;;;;;;4932488;29;20214;-72
2021/11/07 14:07:40;;;;;;;7.90;3.22;;;10.00;99.90;;;;;;4932350;29;20246;-72
2021/11/07 14:10:11;;;;;;;5.45;2.83;;;10.00;99.90;;;;;;4932063;29;20662;-72
2021/11/07 14:12:42;;;;;;;9.65;2.65;;;10.10;99.90;;;;;;4931958;29;20221;-72
2021/11/07 14:15:20;;;;;;;6.80;2.58;;;10.10;99.90;;;;;;4935821;29;20628;-72
2021/11/07 14:17:48;;;;;;;9.18;2.80;;;10.00;99.90;;;;;;4933317;29;20238;-72
2021/11/07 14:20:33;;;;;;;11.48;2.70;;;10.00;99.90;;;;;;4931017;29;20857;-72
2021/11/07 14:23:06;;;;;;;8.18;3.58;;;10.00;99.90;;;;;;4921881;29;20324;-72
2021/11/07 14:25:33;;;;;;;4.22;2.70;;;10.00;99.90;;;;;;4932129;29;20216;-72
2021/11/07 14:28:17;;;;;;;7.78;3.10;;;10.00;99.90;;;;;;4934180;29;20236;-72
2021/11/07 14:30:45;;;;;;;9.32;3.10;;;10.00;99.90;;;;;;4934031;29;20241;-72
2021/11/07 14:33:20;;;;;;;7.50;2.00;;;10.00;99.90;;;;;;4932878;29;20202;-72
2021/11/07 14:35:50;;;;;;;6.93;2.97;;;10.00;99.90;;;;;;4933659;29;20205;-71
2021/11/07 14:38:21;;;;;;;5.28;2.70;;;9.90;99.90;;;;;;4936326;29;20642;-72
2021/11/07 14:40:55;;;;;;;11.02;2.92;;;9.90;99.90;;;;;;4936425;29;20636;-72
2021/11/07 14:43:28;;;;;;;5.03;1.92;;;9.90;99.90;;;;;;4936491;29;20289;-71
2021/11/07 14:46:07;;;;;;;6.60;2.92;;;9.90;99.90;;;;;;4936625;29;20213;-71
2021/11/07 14:48:46;;;;;;;9.25;1.88;;;9.90;99.90;;;;;;4936659;29;20608;-71
2021/11/07 14:51:23;;;;;;;8.27;2.42;;;9.80;99.90;;;;;;4935754;29;20268;-71
2021/11/07 14:54:00;;;;;;;8.07;2.92;;;9.80;99.90;;;;;;4932605;29;20216;-72
2021/11/07 14:56:40;;;;;;;6.47;2.25;;;9.90;99.90;;;;;;4920872;29;20209;-72
2021/11/07 14:59:13;;;;;;;9.60;2.65;;;9.80;99.90;;;;;;4935718;29;20296;-72
2021/11/07 15:01:44;;;;;;;5.03;2.33;;;9.80;99.90;;;;;;4935323;29;20280;-72
2021/11/07 15:04:15;;;;;;;7.75;2.10;;;9.80;99.90;;;;;;4936083;29;20206;-72
2021/11/07 15:06:58;;;;;;;7.15;2.30;;;9.70;99.90;;;;;;4936065;29;20249;-72
2021/11/07 15:09:29;;;;;;;3.58;2.80;;;9.70;99.90;;;;;;4936095;29;20214;-73
2021/11/07 15:12:15;;;;;;;7.03;2.53;;;9.70;99.90;;;;;;4944301;29;20297;-72
2021/11/07 15:14:50;;;;;;;12.40;2.20;;;9.70;99.90;;;;;;4935046;29;20197;-71
2021/11/07 15:17:35;;;;;;;5.40;2.50;;;9.60;99.90;;;;;;4944178;29;20260;-72
2021/11/07 15:20:21;;;;;;;8.98;2.78;;;9.70;99.90;;;;;;4940667;29;20694;-72
2021/11/07 15:22:51;;;;;;;7.90;2.65;;;9.70;99.90;;;;;;4935428;29;20210;-71
2021/11/07 15:25:19;;;;;;;6.50;2.17;;;9.60;99.90;;;;;;4942862;29;20288;-71
2021/11/07 15:27:56;;;;;;;3.78;2.30;;;9.70;99.90;;;;;;4954044;29;20616;-72
2021/11/07 15:30:23;;;;;;;3.15;2.28;;;9.60;99.90;;;;;;4946020;29;20647;-72
2021/11/07 15:32:51;;;;;;;5.18;2.92;;;9.60;99.90;;;;;;4947239;29;20613;-71
2021/11/07 15:35:21;;;;;;;5.88;2.35;;;9.60;99.90;;;;;;4935476;29;20213;-71
2021/11/07 15:37:49;;;;;;;9.93;2.53;;;9.60;99.90;;;;;;4926389;29;20237;-71
2021/11/07 15:40:17;;;;;;;9.25;3.17;;;9.60;99.90;;;;;;4937994;29;20275;-71
2021/11/07 15:42:47;;;;;;;7.35;2.58;;;9.60;99.90;;;;;;4943740;29;20304;-71
2021/11/07 15:45:17;;;;;;;9.95;3.45;;;9.60;99.90;;;;;;4945237;29;20207;-71
2021/11/07 15:47:47;;;;;;;8.27;2.53;;;9.60;99.90;;;;;;4937190;29;20299;-71
2021/11/07 15:50:24;;;;;;;6.15;2.45;;;9.60;99.90;;;;;;4938736;29;20583;-72
2021/11/07 15:52:56;;;;;;;9.05;2.90;;;9.50;99.90;;;;;;4931564;29;20209;-72
2021/11/07 15:55:29;;;;;;;13.00;2.20;;;9.50;99.90;;;;;;4938950;29;20221;-72
2021/11/07 15:58:13;;;;;;;5.35;2.65;;;9.50;99.90;;;;;;4937538;29;20229;-72
2021/11/07 16:00:52;;;;;;;9.18;2.90;;;9.50;99.90;;;;;;4936135;29;20217;-72
2021/11/07 16:03:26;;;;;;;6.70;3.50;;;9.40;99.90;;;;;;4938206;29;20233;-71
2021/11/07 16:06:08;;;;;;;9.38;3.85;;;9.40;99.90;;;;;;4935760;29;20689;-70
2021/11/07 16:11:21;;;;;;;8.25;3.08;;;9.30;99.90;;;;;;4937999;29;20711;-71
2021/11/07 16:14:00;;;;;;;6.35;2.40;;;9.30;99.90;;;;;;4924672;29;20655;-71
2021/11/07 16:16:38;;;;;;;7.60;2.80;;;9.30;99.90;;;;;;4935587;29;20216;-70
2021/11/07 16:19:09;;;;;;;10.32;2.75;;;9.30;99.90;;;;;;4934622;29;20205;-71
2021/11/07 16:21:42;;;;;;;10.90;2.15;;;9.30;99.90;;;;;;4939964;29;20237;-70
2021/11/07 16:24:10;;;;;;;3.97;1.60;;;9.30;99.90;;;;;;4934618;29;20210;-71
2021/11/07 16:26:37;;;;;;;8.55;2.38;;;9.30;99.90;;;;;;4938400;29;20678;-70
2021/11/07 16:29:04;;;;;;;9.82;2.50;;;9.30;99.90;;;;;;4943402;29;20235;-70
2021/11/07 16:31:33;;;;;;;7.03;2.40;;;9.30;99.90;;;;;;4936143;29;20301;-71
2021/11/07 16:34:04;;;;;;;4.63;2.50;;;9.30;99.90;;;;;;4933733;29;20622;-70
2021/11/07 16:36:33;;;;;;;3.28;1.98;;;9.20;99.90;;;;;;4932460;29;20292;-70
2021/11/07 16:39:06;;;;;;;7.10;2.53;;;9.30;99.90;;;;;;4935458;29;20222;-71
2021/11/07 16:41:39;;;;;;;3.13;2.20;;;9.20;99.90;;;;;;4935110;29;20218;-72
2021/11/07 16:44:07;;;;;;;4.43;2.50;;;9.20;99.90;;;;;;4938349;29;20288;-72
2021/11/07 16:46:38;;;;;;;11.73;2.88;;;9.30;99.90;;;;;;4934063;29;20225;-71
2021/11/07 16:49:06;;;;;;;8.50;3.60;;;9.20;99.90;;;;;;4939488;29;20672;-71
2021/11/07 16:51:35;;;;;;;8.63;2.90;;;9.20;99.90;;;;;;4934560;29;20209;-71
2021/11/07 16:54:06;;;;;;;8.57;2.60;;;9.20;99.90;;;;;;4930090;29;20210;-71
2021/11/07 16:56:35;;;;;;;12.18;2.67;;;9.20;99.90;;;;;;4946434;29;20214;-71
2021/11/07 16:59:07;;;;;;;7.40;2.60;;;9.10;99.90;;;;;;4936801;29;20273;-72
2021/11/07 17:01:38;;;;;;;5.70;2.40;;;9.10;99.90;;;;;;4931300;29;20324;-71
2021/11/07 17:04:08;;;;;;;10.85;2.67;;;9.10;99.90;;;;;;4948364;29;20715;-71
2021/11/07 17:06:41;;;;;;;5.30;2.03;;;9.10;99.90;;;;;;4925837;29;20289;-70
2021/11/07 17:09:19;;;;;;;8.15;2.88;;;9.00;99.90;;;;;;4934670;29;20209;-71
2021/11/07 17:11:49;;;;;;;6.07;2.95;;;9.00;99.90;;;;;;4932163;29;20202;-71
2021/11/07 17:14:16;;;;;;;9.85;3.05;;;9.00;99.90;;;;;;4926005;29;20241;-71
2021/11/07 17:16:48;;;;;;;11.25;3.08;;;9.00;99.90;;;;;;4934027;29;20248;-70
2021/11/07 17:19:18;;;;;;;9.25;2.90;;;8.90;99.90;;;;;;4938851;29;20209;-73
2021/11/07 17:22:00;;;;;;;8.32;2.58;;;8.90;99.90;;;;;;4938499;29;20682;-71
2021/11/07 17:24:37;;;;;;;6.43;2.42;;;9.00;99.90;;;;;;4924515;29;20209;-69
2021/11/07 17:27:05;;;;;;;5.60;2.65;;;9.00;99.90;;;;;;4939393;29;20284;-71
2021/11/07 17:29:37;;;;;;;7.10;3.20;;;9.00;99.90;;;;;;4933363;29;20209;-68
2021/11/07 17:32:07;;;;;;;7.93;2.45;;;9.00;99.90;;;;;;4936295;29;20293;-69
2021/11/07 17:34:39;;;;;;;4.97;2.63;;;9.00;99.90;;;;;;4932875;29;20227;-70
2021/11/07 17:37:09;;;;;;;6.97;2.50;;;9.00;99.90;;;;;;4932449;29;20233;-71
2021/11/07 17:39:59;;;;;;;6.03;2.85;;;8.90;99.90;;;;;;4930875;29;20205;-71
2021/11/07 17:56:13;;;;;;;4.22;1.67;;;8.80;99.90;;;;;;4924741;29;20228;-70
2021/11/07 17:58:40;;;;;;;6.18;2.47;;;8.70;99.90;;;;;;4934230;29;20690;-71
2021/11/07 18:01:12;;;;;;;6.40;2.50;;;8.70;99.90;;;;;;4930465;29;20252;-71
2021/11/07 18:03:38;;;;;;;5.10;2.10;;;8.60;99.90;;;;;;4932453;29;20217;-71
2021/11/07 18:06:07;;;;;;;9.73;2.40;;;8.60;99.90;;;;;;4932827;29;20213;-71
2021/11/07 18:08:38;;;;;;;4.18;2.10;;;8.60;99.90;;;;;;4932714;29;20735;-72
2021/11/07 18:11:05;;;;;;;5.40;1.90;;;8.60;99.90;;;;;;4933067;29;20722;-71
2021/11/07 18:13:34;;;;;;;4.50;1.40;;;8.70;99.90;;;;;;4928179;29;20209;-70
2021/11/07 18:16:02;;;;;;;3.80;2.58;;;8.60;99.90;;;;;;4939935;29;20209;-71
2021/11/07 18:18:29;;;;;;;5.22;2.25;;;8.60;99.90;;;;;;4937806;29;20726;-71
2021/11/07 18:20:56;;;;;;;6.03;2.05;;;8.60;99.90;;;;;;4936192;29;20229;-71
2021/11/07 18:23:31;;;;;;;9.27;2.75;;;8.70;99.90;;;;;;4940362;29;20214;-71
2021/11/07 18:25:59;;;;;;;5.75;1.90;;;8.70;99.90;;;;;;4929357;29;20209;-70
2021/11/07 18:28:26;;;;;;;2.70;1.95;;;8.70;99.90;;;;;;4932603;29;20229;-72
2021/11/07 18:30:54;;;;;;;5.47;2.00;;;8.60;99.90;;;;;;4931788;29;20278;-71
2021/11/07 18:33:22;;;;;;;2.17;1.80;;;8.60;99.90;;;;;;4937155;29;20213;-72
2021/11/07 18:35:51;;;;;;;2.83;2.05;;;8.60;99.90;;;;;;4944274;28;20580;-71
2021/11/07 18:38:21;;;;;;;9.50;2.53;;;8.60;99.90;;;;;;4939275;29;20249;-72
2021/11/07 18:40:48;;;;;;;3.85;1.20;;;8.60;99.90;;;;;;4939751;29;20244;-70
2021/11/07 18:43:15;;;;;;;3.30;1.98;;;8.60;99.90;;;;;;4932163;29;20701;-71
2021/11/07 18:45:42;;;;;;;10.70;1.92;;;8.70;99.90;;;;;;4932028;29;20198;-72
2021/11/07 18:48:10;;;;;;;3.97;1.90;;;8.70;99.90;;;;;;4930243;29;20233;-72
2021/11/07 18:50:37;;;;;;;4.82;1.70;;;8.70;99.90;;;;;;4925504;29;20209;-71
2021/11/07 18:53:04;;;;;;;5.75;2.40;;;8.70;99.90;;;;;;4928357;29;20210;-70
2021/11/07 18:55:32;;;;;;;2.55;1.70;;;8.60;99.90;;;;;;4929270;29;20206;-71
2021/11/07 18:57:59;;;;;;;4.13;1.45;;;8.60;99.90;;;;;;4928421;29;20245;-72
2021/11/07 19:00:32;;;;;;;10.70;1.65;;;8.50;99.90;;;;;;4927381;29;20214;-71
2021/11/07 19:02:59;;;;;;;6.13;2.03;;;8.50;99.90;;;;;;4933295;29;20217;-70
2021/11/07 19:05:27;;;;;;;2.17;2.00;;;8.50;99.90;;;;;;4941377;29;20273;-72
2021/11/07 19:07:53;;;;;;;3.42;2.28;;;8.60;99.90;;;;;;4931827;29;20238;-71
2021/11/07 19:10:22;;;;;;;5.97;2.15;;;8.50;99.90;;;;;;4926965;29;20684;-71
2021/11/07 19:12:50;;;;;;;4.88;2.63;;;8.50;99.90;;;;;;4924095;29;20222;-72
2021/11/07 19:15:18;;;;;;;4.38;2.58;;;8.50;99.90;;;;;;4929717;29;20294;-71
2021/11/07 19:17:45;;;;;;;6.20;2.35;;;8.50;99.90;;;;;;4928340;29;20612;-73
2021/11/07 19:20:13;;;;;;;4.88;2.20;;;8.50;99.90;;;;;;4929748;29;20212;-72
2021/11/07 19:22:41;;;;;;;7.40;2.60;;;8.50;99.90;;;;;;4929652;29;20225;-72